createdAt,value
2023-10-20T00:00:41.975Z,59.01
2023-10-20T00:03:09.794Z,59.04
2023-10-20T00:05:36.836Z,59.09
2023-10-20T00:08:03.998Z,59.10
2023-10-20T00:10:36.337Z,58.94
2023-10-20T00:13:03.242Z,59.07
2023-10-20T00:15:29.764Z,59.05
2023-10-20T00:17:56.299Z,58.96
2023-10-20T00:20:22.839Z,59.03
2023-10-20T00:22:49.713Z,58.96
2023-10-20T00:25:16.298Z,59.08
2023-10-20T00:27:42.809Z,59.01
2023-10-20T00:30:10.619Z,58.82
2023-10-20T00:32:37.433Z,58.97
2023-10-20T00:35:06.825Z,58.88
2023-10-20T00:37:33.306Z,58.89
2023-10-20T00:39:59.773Z,58.89
2023-10-20T00:42:26.206Z,58.71
2023-10-20T00:44:55.020Z,58.79
2023-10-20T00:47:21.587Z,58.71
2023-10-20T00:49:50.724Z,58.70
2023-10-20T00:52:20.161Z,58.77
2023-10-20T00:54:48.618Z,58.76
2023-10-20T00:57:17.492Z,58.82
2023-10-20T00:59:44.534Z,58.84
2023-10-20T01:02:11.548Z,58.58
2023-10-20T01:04:38.056Z,58.79
2023-10-20T01:07:04.566Z,58.67
2023-10-20T01:09:31.144Z,58.78
2023-10-20T01:11:58.103Z,58.71
2023-10-20T01:14:24.581Z,58.62
2023-10-20T01:16:51.219Z,58.49
2023-10-20T01:19:17.667Z,58.57
2023-10-20T01:21:45.994Z,58.80
2023-10-20T01:24:12.474Z,58.70
2023-10-20T01:26:40.162Z,58.59
2023-10-20T01:29:10.886Z,58.51
2023-10-20T01:31:39.993Z,58.47
2023-10-20T01:34:06.547Z,58.51
2023-10-20T01:36:33.088Z,58.51
2023-10-20T01:38:59.653Z,58.74
2023-10-20T01:41:27.477Z,58.51
2023-10-20T01:43:56.313Z,58.48
2023-10-20T01:46:22.889Z,58.46
2023-10-20T01:48:49.363Z,58.47
2023-10-20T01:51:15.832Z,58.38
2023-10-20T01:53:42.424Z,58.44
2023-10-20T01:56:09.041Z,58.51
2023-10-20T01:58:35.543Z,58.51
2023-10-20T02:01:02.130Z,58.43
2023-10-20T02:03:28.850Z,58.46
2023-10-20T02:05:55.422Z,58.45
2023-10-20T02:08:21.901Z,58.47
2023-10-20T02:10:48.398Z,58.44
2023-10-20T02:13:14.883Z,58.44
2023-10-20T02:15:46.262Z,58.33
2023-10-20T02:18:12.968Z,58.25
2023-10-20T02:20:39.509Z,58.28
2023-10-20T02:23:06.010Z,58.26
2023-10-20T02:25:32.465Z,58.16
2023-10-20T02:27:58.934Z,58.24
2023-10-20T02:30:25.418Z,58.15
2023-10-20T02:32:51.963Z,58.17
2023-10-20T02:35:18.522Z,58.22
2023-10-20T02:37:44.977Z,58.23
2023-10-20T02:40:11.895Z,58.16
2023-10-20T02:42:38.468Z,58.23
2023-10-20T02:45:10.616Z,58.13
2023-10-20T02:47:37.185Z,58.01
2023-10-20T02:50:03.952Z,58.06
2023-10-20T02:52:30.475Z,58.03
2023-10-20T02:54:57.505Z,57.99
2023-10-20T02:57:23.995Z,58.04
2023-10-20T02:59:53.301Z,57.99
2023-10-20T03:02:21.770Z,58.01
2023-10-20T03:04:48.392Z,58.02
2023-10-20T03:07:14.929Z,58.02
2023-10-20T03:09:41.396Z,58.01
2023-10-20T03:12:07.847Z,57.97
2023-10-20T03:14:36.131Z,57.89
2023-10-20T03:17:03.044Z,57.95
2023-10-20T03:19:29.844Z,57.81
2023-10-20T03:21:56.434Z,57.92
2023-10-20T03:24:22.945Z,57.72
2023-10-20T03:26:49.637Z,57.72
2023-10-20T03:29:16.355Z,57.84
2023-10-20T03:31:43.358Z,57.75
2023-10-20T03:34:09.869Z,57.79
2023-10-20T03:36:36.329Z,57.74
2023-10-20T03:39:02.943Z,57.72
2023-10-20T03:41:30.493Z,57.73
2023-10-20T03:43:59.471Z,57.65
2023-10-20T03:46:28.030Z,57.76
2023-10-20T03:48:54.796Z,57.68
2023-10-20T03:51:22.581Z,57.70
2023-10-20T03:53:51.883Z,57.74
2023-10-20T03:56:20.514Z,57.62
2023-10-20T03:58:48.050Z,57.58
2023-10-20T04:01:14.807Z,57.58
2023-10-20T04:03:42.374Z,57.49
2023-10-20T04:06:12.898Z,57.51
2023-10-20T04:08:39.526Z,57.58
2023-10-20T04:11:06.181Z,57.55
2023-10-20T04:13:33.522Z,57.55
2023-10-20T04:16:13.224Z,57.63
2023-10-20T04:18:43.177Z,57.71
2023-10-20T04:21:12.610Z,57.59
2023-10-20T04:23:39.673Z,57.55
2023-10-20T04:26:17.055Z,57.46
2023-10-20T04:28:47.543Z,57.57
2023-10-20T04:31:32.999Z,57.64
2023-10-20T04:34:18.072Z,57.47
2023-10-20T04:37:03.366Z,57.49
2023-10-20T04:39:48.810Z,57.56
2023-10-20T04:42:33.850Z,57.62
2023-10-20T04:45:18.996Z,57.60
2023-10-20T04:47:57.643Z,57.43
2023-10-20T04:50:42.894Z,57.41
2023-10-20T04:53:32.672Z,57.72
2023-10-20T04:56:17.357Z,57.46
2023-10-20T04:58:53.014Z,57.49
2023-10-20T05:01:28.714Z,57.57
2023-10-20T05:03:59.122Z,57.44
2023-10-20T05:06:43.735Z,57.56
2023-10-20T05:09:14.157Z,57.29
2023-10-20T05:11:41.191Z,57.49
2023-10-20T05:14:07.744Z,57.41
2023-10-20T05:16:37.344Z,57.33
2023-10-20T05:19:06.882Z,57.44
2023-10-20T05:21:34.643Z,57.24
2023-10-20T05:24:06.959Z,57.37
2023-10-20T05:26:33.589Z,57.37
2023-10-20T05:29:00.525Z,57.44
2023-10-20T05:31:28.083Z,57.70
2023-10-20T05:33:54.754Z,57.59
2023-10-20T05:36:21.259Z,57.60
2023-10-20T05:38:48.231Z,57.86
2023-10-20T05:41:14.818Z,57.80
2023-10-20T05:43:42.510Z,57.84
2023-10-20T05:46:19.007Z,57.63
2023-10-20T05:48:46.179Z,57.66
2023-10-20T05:51:13.251Z,57.89
2023-10-20T05:53:39.766Z,57.87
2023-10-20T05:56:07.651Z,58.08
2023-10-20T05:58:36.136Z,58.02
2023-10-20T06:01:10.648Z,58.03
2023-10-20T06:03:37.374Z,58.14
2023-10-20T06:06:06.891Z,57.91
2023-10-20T06:08:33.561Z,58.55
2023-10-20T06:11:06.814Z,59.10
2023-10-20T06:13:35.552Z,59.05
2023-10-20T06:16:12.412Z,59.04
2023-10-20T06:18:40.056Z,58.95
2023-10-20T06:21:07.189Z,59.02
2023-10-20T06:23:33.927Z,59.00
2023-10-20T06:26:00.568Z,58.89
2023-10-20T06:28:27.902Z,58.75
2023-10-20T06:30:58.895Z,58.94
2023-10-20T06:33:30.423Z,58.86
2023-10-20T06:36:01.561Z,58.66
2023-10-20T06:38:46.030Z,58.37
2023-10-20T06:41:14.426Z,58.83
2023-10-20T06:43:41.096Z,58.64
2023-10-20T06:46:07.607Z,58.73
2023-10-20T06:48:34.179Z,58.47
2023-10-20T06:51:00.630Z,58.34
2023-10-20T06:53:27.102Z,58.52
2023-10-20T06:56:04.791Z,58.29
2023-10-20T06:58:40.039Z,58.49
2023-10-20T07:01:07.070Z,58.54
2023-10-20T07:03:33.967Z,58.33
2023-10-20T07:06:01.748Z,58.50
2023-10-20T07:08:28.382Z,58.53
2023-10-20T07:10:54.903Z,58.51
2023-10-20T07:13:21.353Z,58.33
2023-10-20T07:15:47.919Z,58.51
2023-10-20T07:18:14.574Z,58.35
2023-10-20T07:20:41.235Z,58.56
2023-10-20T07:23:07.820Z,59.11
2023-10-20T07:25:34.550Z,58.94
2023-10-20T07:28:01.050Z,59.23
2023-10-20T07:30:33.209Z,59.00
2023-10-20T07:32:59.712Z,59.00
2023-10-20T07:35:26.388Z,59.35
2023-10-20T07:37:52.910Z,59.24
2023-10-20T07:40:20.218Z,59.16
2023-10-20T07:42:47.779Z,58.98
2023-10-20T07:45:14.505Z,58.97
2023-10-20T07:47:41.068Z,59.34
2023-10-20T07:50:07.781Z,59.00
2023-10-20T07:52:34.307Z,58.87
2023-10-20T07:55:02.673Z,59.30
2023-10-20T07:57:30.110Z,58.92
2023-10-20T07:59:56.616Z,59.30
2023-10-20T08:02:24.947Z,58.86
2023-10-20T08:04:52.297Z,58.71
2023-10-20T08:07:19.506Z,58.88
2023-10-20T08:09:48.424Z,58.83
2023-10-20T08:12:16.277Z,58.91
2023-10-20T08:14:42.868Z,58.99
2023-10-20T08:17:11.564Z,58.90
2023-10-20T08:19:38.188Z,58.86
2023-10-20T08:22:04.768Z,59.00
2023-10-20T08:24:31.607Z,58.93
2023-10-20T08:26:58.968Z,58.83
2023-10-20T08:29:25.887Z,58.71
2023-10-20T08:31:52.803Z,58.90
2023-10-20T08:34:19.319Z,58.69
2023-10-20T08:36:45.859Z,58.69
2023-10-20T08:39:15.372Z,58.77
2023-10-20T08:41:43.578Z,58.66
2023-10-20T08:44:10.869Z,58.79
2023-10-20T08:46:37.573Z,58.68
2023-10-20T08:49:06.660Z,58.64
2023-10-20T08:51:33.952Z,58.67
2023-10-20T08:54:00.613Z,58.80
2023-10-20T08:56:27.971Z,58.48
2023-10-20T08:58:58.137Z,58.49
2023-10-20T09:01:25.107Z,58.79
2023-10-20T09:03:53.558Z,58.67
2023-10-20T09:06:20.755Z,58.33
2023-10-20T09:08:48.668Z,58.46
2023-10-20T09:11:15.371Z,58.40
2023-10-20T09:13:42.381Z,58.49
2023-10-20T09:16:10.071Z,58.41
2023-10-20T09:18:54.569Z,58.28
2023-10-20T09:21:22.697Z,58.50
2023-10-20T09:23:58.265Z,58.70
2023-10-20T09:26:27.957Z,58.43
2023-10-20T09:28:55.709Z,58.32
2023-10-20T09:31:23.408Z,58.43
2023-10-20T09:33:50.359Z,58.41
2023-10-20T09:36:17.248Z,58.20
2023-10-20T09:39:06.446Z,58.25
2023-10-20T09:41:34.068Z,58.49
2023-10-20T09:44:08.348Z,58.37
2023-10-20T09:46:54.621Z,58.38
2023-10-20T09:49:27.132Z,58.23
2023-10-20T09:51:55.620Z,58.00
2023-10-20T09:54:25.369Z,58.20
2023-10-20T09:56:52.594Z,58.33
2023-10-20T09:59:21.437Z,58.11
2023-10-20T10:01:48.239Z,58.16
2023-10-20T10:04:15.033Z,58.11
2023-10-20T10:06:46.565Z,58.06
2023-10-20T10:09:16.327Z,58.19
2023-10-20T10:11:46.419Z,58.16
2023-10-20T10:14:23.090Z,57.92
2023-10-20T10:16:56.470Z,58.11
2023-10-20T10:19:27.284Z,58.19
2023-10-20T10:21:54.842Z,57.99
2023-10-20T10:24:24.590Z,58.23
2023-10-20T10:26:56.367Z,58.21
2023-10-20T10:29:41.488Z,58.11
2023-10-20T10:32:11.629Z,58.09
2023-10-20T10:34:44.156Z,58.44
2023-10-20T10:37:10.738Z,58.19
2023-10-20T10:39:37.677Z,58.15
2023-10-20T10:42:05.176Z,58.29
2023-10-20T10:44:35.858Z,58.13
2023-10-20T10:47:04.387Z,58.12
2023-10-20T10:49:32.421Z,58.02
2023-10-20T10:51:59.931Z,58.32
2023-10-20T10:54:27.898Z,58.22
2023-10-20T10:56:57.335Z,58.11
2023-10-20T10:59:25.041Z,57.97
2023-10-20T11:01:52.779Z,58.37
2023-10-20T11:04:19.340Z,58.10
2023-10-20T11:06:46.021Z,58.20
2023-10-20T11:09:17.454Z,58.50
2023-10-20T11:11:49.069Z,58.69
2023-10-20T11:16:49.151Z,58.87
2023-10-20T11:19:16.174Z,58.68
2023-10-20T11:21:46.696Z,58.71
2023-10-20T11:24:24.030Z,58.46
2023-10-20T11:27:01.110Z,58.69
2023-10-20T11:29:28.712Z,58.54
2023-10-20T11:31:59.433Z,58.83
2023-10-20T11:34:26.436Z,58.53
2023-10-20T11:36:52.881Z,58.45
2023-10-20T11:39:22.505Z,58.65
2023-10-20T11:41:49.094Z,58.72
2023-10-20T11:44:15.560Z,58.58
2023-10-20T11:46:44.434Z,58.38
2023-10-20T11:49:12.045Z,58.75
2023-10-20T11:51:39.738Z,58.63
2023-10-20T11:54:07.097Z,58.59
2023-10-20T11:56:36.156Z,58.51
2023-10-20T11:59:02.773Z,58.44
2023-10-20T12:01:29.279Z,58.58
2023-10-20T12:03:55.845Z,58.65
2023-10-20T12:06:22.372Z,58.71
2023-10-20T12:08:49.058Z,58.64
2023-10-20T12:11:15.674Z,58.67
2023-10-20T12:13:47.852Z,58.54
2023-10-20T12:16:14.458Z,58.44
2023-10-20T12:18:41.695Z,58.46
2023-10-20T12:21:09.126Z,58.49
2023-10-20T12:23:35.737Z,58.39
2023-10-20T12:26:04.366Z,58.34
2023-10-20T12:28:32.416Z,58.40
2023-10-20T12:31:00.719Z,58.27
2023-10-20T12:33:28.475Z,58.75
2023-10-20T12:35:55.780Z,58.36
2023-10-20T12:38:23.155Z,58.77
2023-10-20T12:40:52.814Z,58.56
2023-10-20T12:43:19.956Z,58.60
2023-10-20T12:45:46.501Z,58.81
2023-10-20T12:48:13.041Z,58.64
2023-10-20T12:50:40.179Z,58.66
2023-10-20T12:53:08.472Z,58.69
2023-10-20T12:55:35.980Z,58.54
2023-10-20T12:58:03.443Z,58.70
2023-10-20T13:00:30.043Z,58.74
2023-10-20T13:02:56.758Z,58.77
2023-10-20T13:05:23.286Z,58.74
2023-10-20T13:07:51.470Z,58.66
2023-10-20T13:10:18.418Z,58.37
2023-10-20T13:12:44.912Z,58.51
2023-10-20T13:15:11.487Z,58.79
2023-10-20T13:17:38.782Z,58.52
2023-10-20T13:20:07.075Z,58.49
2023-10-20T13:22:33.865Z,59.02
2023-10-20T13:25:00.344Z,58.55
2023-10-20T13:27:27.815Z,58.51
2023-10-20T13:29:54.323Z,58.46
2023-10-20T13:32:20.785Z,58.52
2023-10-20T13:34:47.258Z,58.49
2023-10-20T13:37:13.696Z,58.45
2023-10-20T13:39:40.169Z,58.48
2023-10-20T13:42:07.934Z,58.47
2023-10-20T13:44:34.488Z,58.44
2023-10-20T13:47:01.033Z,58.43
2023-10-20T13:49:29.083Z,58.34
2023-10-20T13:51:55.548Z,58.48
2023-10-20T13:54:22.091Z,58.54
2023-10-20T13:56:48.605Z,58.67
2023-10-20T13:59:16.813Z,58.49
2023-10-20T14:01:43.361Z,58.27
2023-10-20T14:04:09.952Z,58.47
2023-10-20T14:06:36.579Z,58.29
2023-10-20T14:09:04.186Z,58.15
2023-10-20T14:11:30.783Z,58.05
2023-10-20T14:13:57.782Z,58.04
2023-10-20T14:16:24.379Z,58.22
2023-10-20T14:18:50.884Z,58.49
2023-10-20T14:21:17.461Z,58.15
2023-10-20T14:23:43.995Z,58.08
2023-10-20T14:26:10.507Z,58.17
2023-10-20T14:28:37.948Z,58.27
2023-10-20T14:31:08.016Z,58.24
2023-10-20T14:33:37.638Z,58.18
2023-10-20T14:36:07.106Z,58.86
2023-10-20T14:38:33.677Z,58.92
2023-10-20T14:41:04.172Z,58.82
2023-10-20T14:43:33.469Z,58.80
2023-10-20T14:46:00.582Z,58.59
2023-10-20T14:48:29.985Z,58.75
2023-10-20T14:50:57.327Z,58.75
2023-10-20T14:53:24.112Z,58.47
2023-10-20T14:55:50.723Z,58.77
2023-10-20T14:58:17.573Z,58.60
2023-10-20T15:00:48.421Z,58.60
2023-10-20T15:03:15.827Z,58.25
2023-10-20T15:05:42.889Z,58.07
2023-10-20T15:08:09.911Z,58.26
2023-10-20T15:10:36.907Z,58.33
2023-10-20T15:13:04.708Z,58.51
2023-10-20T15:15:32.022Z,58.50
2023-10-20T15:17:59.069Z,58.22
2023-10-20T15:20:25.981Z,58.22
2023-10-20T15:22:55.700Z,58.15
2023-10-20T15:25:29.781Z,58.32
2023-10-20T15:27:56.241Z,58.34
2023-10-20T15:30:23.286Z,58.25
2023-10-20T15:32:49.981Z,58.19
2023-10-20T15:35:16.991Z,58.06
2023-10-20T15:37:43.492Z,58.14
2023-10-20T15:40:18.652Z,58.11
2023-10-20T15:42:45.814Z,57.96
2023-10-20T15:45:12.376Z,58.28
2023-10-20T15:47:39.137Z,57.92
2023-10-20T15:50:06.104Z,58.05
2023-10-20T15:52:32.675Z,58.09
2023-10-20T15:54:59.186Z,58.34
2023-10-20T15:57:26.275Z,59.97
2023-10-20T15:59:56.774Z,59.58
2023-10-20T16:02:23.597Z,59.07
2023-10-20T16:04:51.007Z,59.05
2023-10-20T16:07:17.484Z,59.09
2023-10-20T16:09:43.941Z,59.25
2023-10-20T16:12:10.485Z,59.45
2023-10-20T16:14:36.991Z,59.60
2023-10-20T16:17:03.493Z,59.82
2023-10-20T16:19:29.924Z,59.84
2023-10-20T16:21:56.375Z,59.44
2023-10-20T16:24:23.012Z,59.52
2023-10-20T16:26:49.498Z,59.65
2023-10-20T16:29:16.022Z,59.80
2023-10-20T16:31:42.457Z,59.43
2023-10-20T16:34:09.079Z,59.29
2023-10-20T16:36:35.618Z,59.35
2023-10-20T16:39:05.294Z,59.38
2023-10-20T16:41:32.068Z,59.31
2023-10-20T16:43:58.564Z,59.29
2023-10-20T16:46:25.064Z,59.18
2023-10-20T16:48:52.540Z,59.24
2023-10-20T16:51:19.029Z,59.18
2023-10-20T16:53:47.885Z,59.21
2023-10-20T16:56:14.885Z,59.39
2023-10-20T16:58:44.491Z,59.45
2023-10-20T17:01:11.162Z,59.39
2023-10-20T17:03:37.953Z,59.34
2023-10-20T17:06:07.434Z,59.23
2023-10-20T17:08:34.238Z,59.32
2023-10-20T17:11:07.084Z,59.34
2023-10-20T17:13:34.529Z,59.37
2023-10-20T17:16:04.955Z,59.23
2023-10-20T17:18:31.914Z,59.34
2023-10-20T17:21:08.774Z,59.05
2023-10-20T17:23:35.909Z,59.27
2023-10-20T17:26:03.862Z,59.18
2023-10-20T17:28:31.899Z,59.23
2023-10-20T17:30:59.130Z,59.33
2023-10-20T17:33:29.036Z,59.07
2023-10-20T17:36:01.977Z,59.07
2023-10-20T17:38:28.514Z,58.95
2023-10-20T17:40:55.986Z,58.99
2023-10-20T17:43:22.470Z,59.14
2023-10-20T17:45:48.984Z,59.32
2023-10-20T17:48:15.631Z,59.12
2023-10-20T17:50:42.223Z,59.15
2023-10-20T17:53:10.328Z,59.04
2023-10-20T17:55:43.339Z,58.97
2023-10-20T17:58:09.967Z,58.95
2023-10-20T18:00:36.525Z,58.84
2023-10-20T18:03:03.983Z,58.75
2023-10-20T18:05:30.731Z,58.99
2023-10-20T18:07:57.320Z,58.94
2023-10-20T18:10:23.776Z,58.80
2023-10-20T18:12:51.014Z,58.53
2023-10-20T18:15:17.759Z,58.63
2023-10-20T18:17:44.311Z,58.80
2023-10-20T18:20:11.031Z,58.56
2023-10-20T18:22:37.537Z,58.50
2023-10-20T18:25:04.238Z,58.69
2023-10-20T18:27:30.738Z,58.47
2023-10-20T18:29:57.208Z,58.71
2023-10-20T18:32:23.820Z,58.70
2023-10-20T18:34:50.317Z,58.40
2023-10-20T18:37:16.806Z,58.48
2023-10-20T18:39:43.255Z,58.51
2023-10-20T18:42:11.509Z,58.45
2023-10-20T18:44:38.507Z,58.48
2023-10-20T18:47:05.399Z,58.47
2023-10-20T18:49:31.903Z,58.65
2023-10-20T18:51:58.374Z,58.43
2023-10-20T18:54:24.870Z,58.45
2023-10-20T18:56:51.338Z,58.64
2023-10-20T18:59:17.838Z,58.30
2023-10-20T19:01:44.270Z,58.49
2023-10-20T19:04:10.858Z,58.29
2023-10-20T19:06:38.025Z,58.46
2023-10-20T19:09:05.070Z,58.37
2023-10-20T19:11:31.910Z,58.41
2023-10-20T19:13:58.662Z,58.44
2023-10-20T19:16:25.146Z,58.29
2023-10-20T19:18:51.772Z,58.22
2023-10-20T19:21:18.357Z,58.34
2023-10-20T19:23:44.856Z,58.47
2023-10-20T19:26:11.723Z,58.73
2023-10-20T19:28:39.203Z,58.49
2023-10-20T19:31:08.380Z,58.43
2023-10-20T19:33:35.179Z,58.44
2023-10-20T19:36:02.833Z,58.35
2023-10-20T19:38:29.754Z,58.21
2023-10-20T19:40:56.321Z,58.27
2023-10-20T19:43:22.881Z,58.78
2023-10-20T19:45:49.373Z,59.09
2023-10-20T19:48:15.893Z,58.89
2023-10-20T19:50:43.777Z,58.57
2023-10-20T19:53:10.380Z,58.54
2023-10-20T19:55:36.823Z,58.57
2023-10-20T19:58:03.408Z,58.44
2023-10-20T20:00:31.266Z,58.39
2023-10-20T20:02:58.610Z,58.54
2023-10-20T20:05:31.431Z,58.45
2023-10-20T20:07:58.177Z,58.34
2023-10-20T20:10:24.926Z,58.38
2023-10-20T20:12:51.419Z,58.48
2023-10-20T20:15:18.713Z,58.43
2023-10-20T20:17:45.474Z,58.43
2023-10-20T20:20:12.114Z,58.12
2023-10-20T20:22:38.786Z,58.32
2023-10-20T20:25:05.489Z,58.30
2023-10-20T20:27:32.571Z,58.19
2023-10-20T20:29:59.202Z,58.22
2023-10-20T20:32:25.761Z,58.36
2023-10-20T20:34:52.296Z,58.17
2023-10-20T20:37:20.302Z,58.39
2023-10-20T20:39:46.900Z,58.39
2023-10-20T20:42:13.526Z,58.48
2023-10-20T20:44:40.123Z,58.44
2023-10-20T20:47:06.669Z,58.45
2023-10-20T20:49:33.418Z,58.53
2023-10-20T20:52:00.154Z,58.39
2023-10-20T20:54:26.683Z,58.45
2023-10-20T20:56:53.196Z,58.71
2023-10-20T20:59:19.821Z,58.62
2023-10-20T21:01:46.703Z,58.51
2023-10-20T21:04:13.589Z,58.66
2023-10-20T21:06:40.243Z,58.47
2023-10-20T21:09:06.867Z,58.50
2023-10-20T21:11:34.383Z,58.67
2023-10-20T21:14:04.257Z,58.44
2023-10-20T21:16:31.947Z,58.77
2023-10-20T21:19:01.525Z,58.52
2023-10-20T21:21:28.243Z,58.72
2023-10-20T21:23:54.789Z,58.81
2023-10-20T21:26:22.780Z,58.40
2023-10-20T21:28:49.493Z,58.65
2023-10-20T21:31:16.302Z,58.59
2023-10-20T21:33:42.962Z,58.76
2023-10-20T21:36:13.755Z,58.79
2023-10-20T21:38:40.315Z,58.89
2023-10-20T21:41:06.804Z,58.57
2023-10-20T21:43:33.265Z,58.64
2023-10-20T21:45:59.839Z,58.52
2023-10-20T21:48:27.080Z,58.66
2023-10-20T21:51:03.729Z,58.76
2023-10-20T21:53:33.268Z,58.63
2023-10-20T21:56:11.564Z,58.93
2023-10-20T21:58:38.433Z,58.73
2023-10-20T22:01:06.112Z,58.69
2023-10-20T22:03:33.024Z,58.91
2023-10-20T22:05:59.684Z,58.81
2023-10-20T22:08:26.254Z,59.02
2023-10-20T22:10:52.878Z,58.92
2023-10-20T22:13:19.626Z,58.72
2023-10-20T22:15:46.951Z,58.99
2023-10-20T22:18:13.527Z,59.00
2023-10-20T22:20:40.455Z,58.87
2023-10-20T22:23:07.981Z,58.85
2023-10-20T22:25:34.913Z,58.95
2023-10-20T22:28:01.516Z,58.90
2023-10-20T22:30:28.178Z,58.91
2023-10-20T22:32:54.827Z,58.99
2023-10-20T22:35:21.371Z,58.85
2023-10-20T22:37:49.353Z,58.92
2023-10-20T22:40:16.159Z,59.02
2023-10-20T22:42:42.597Z,58.92
2023-10-20T22:45:09.607Z,58.98
2023-10-20T22:47:36.226Z,58.81
2023-10-20T22:50:02.811Z,58.90
2023-10-20T22:52:29.324Z,59.08
2023-10-20T22:54:55.756Z,58.98
2023-10-20T22:57:22.277Z,59.04
2023-10-20T22:59:48.841Z,58.95
2023-10-20T23:02:15.357Z,58.83
2023-10-20T23:04:41.909Z,58.84
2023-10-20T23:07:08.527Z,58.97
2023-10-20T23:09:35.569Z,58.94
2023-10-20T23:12:02.276Z,58.92
2023-10-20T23:14:28.760Z,58.89
2023-10-20T23:16:55.220Z,58.90
2023-10-20T23:19:21.795Z,59.04
2023-10-20T23:21:48.304Z,58.84
2023-10-20T23:24:14.838Z,58.85
2023-10-20T23:26:41.884Z,58.76
2023-10-20T23:29:08.348Z,58.73
2023-10-20T23:31:34.804Z,58.92
2023-10-20T23:34:01.328Z,58.97
2023-10-20T23:36:30.620Z,58.80
2023-10-20T23:38:57.122Z,58.94
2023-10-20T23:41:23.662Z,58.92
2023-10-20T23:43:50.139Z,58.74
2023-10-20T23:46:16.668Z,58.77
2023-10-20T23:48:43.251Z,58.74
2023-10-20T23:51:09.915Z,58.81
2023-10-20T23:53:36.940Z,58.93
2023-10-20T23:56:03.556Z,58.93
2023-10-20T23:58:29.994Z,58.82
